sensor_id;sensor_type;location;lat;lon;timestamp;temperature;humidity
37642;DHT22;23486;51.956;5.888;2023-10-13T00:01:31;16.70;99.90
37642;DHT22;23486;51.956;5.888;2023-10-13T00:03:57;16.70;99.90
37642;DHT22;23486;51.956;5.888;2023-10-13T00:06:22;16.60;99.90
37642;DHT22;23486;51.956;5.888;2023-10-13T00:08:48;16.70;99.90
37642;DHT22;23486;51.956;5.888;2023-10-13T00:11:14;16.80;99.90
37642;DHT22;23486;51.956;5.888;2023-10-13T00:13:40;16.70;99.90
37642;DHT22;23486;51.956;5.888;2023-10-13T00:16:08;16.70;99.90
37642;DHT22;23486;51.956;5.888;2023-10-13T00:18:43;16.70;99.90
37642;DHT22;23486;51.956;5.888;2023-10-13T00:21:10;16.70;99.90
37642;DHT22;23486;51.956;5.888;2023-10-13T00:23:39;16.70;99.90
37642;DHT22;23486;51.956;5.888;2023-10-13T00:26:09;16.70;99.90
37642;DHT22;23486;51.956;5.888;2023-10-13T00:28:35;16.70;99.90
37642;DHT22;23486;51.956;5.888;2023-10-13T00:31:01;16.70;99.90
37642;DHT22;23486;51.956;5.888;2023-10-13T00:33:37;16.70;99.90
37642;DHT22;23486;51.956;5.888;2023-10-13T00:36:04;16.70;99.90
37642;DHT22;23486;51.956;5.888;2023-10-13T00:38:30;16.70;99.90
37642;DHT22;23486;51.956;5.888;2023-10-13T00:40:56;16.70;99.90
37642;DHT22;23486;51.956;5.888;2023-10-13T00:43:28;16.80;99.90
37642;DHT22;23486;51.956;5.888;2023-10-13T00:45:59;16.70;99.90
37642;DHT22;23486;51.956;5.888;2023-10-13T00:48:29;16.60;99.90
37642;DHT22;23486;51.956;5.888;2023-10-13T00:53:31;16.70;99.90
37642;DHT22;23486;51.956;5.888;2023-10-13T00:56:03;16.70;99.90
37642;DHT22;23486;51.956;5.888;2023-10-13T00:58:36;16.70;99.90
37642;DHT22;23486;51.956;5.888;2023-10-13T01:01:05;16.70;99.90
37642;DHT22;23486;51.956;5.888;2023-10-13T01:03:47;16.70;99.90
37642;DHT22;23486;51.956;5.888;2023-10-13T01:06:15;16.70;99.90
37642;DHT22;23486;51.956;5.888;2023-10-13T01:08:44;16.70;99.90
37642;DHT22;23486;51.956;5.888;2023-10-13T01:11:10;16.70;99.90
37642;DHT22;23486;51.956;5.888;2023-10-13T01:13:36;16.70;99.90
37642;DHT22;23486;51.956;5.888;2023-10-13T01:16:03;16.60;99.90
37642;DHT22;23486;51.956;5.888;2023-10-13T01:18:29;16.60;99.90
37642;DHT22;23486;51.956;5.888;2023-10-13T01:20:55;16.70;99.90
37642;DHT22;23486;51.956;5.888;2023-10-13T01:23:27;16.70;99.90
37642;DHT22;23486;51.956;5.888;2023-10-13T01:25:54;16.70;99.90
37642;DHT22;23486;51.956;5.888;2023-10-13T01:28:22;16.70;99.90
37642;DHT22;23486;51.956;5.888;2023-10-13T01:30:48;16.70;99.90
37642;DHT22;23486;51.956;5.888;2023-10-13T01:33:18;16.70;99.90
37642;DHT22;23486;51.956;5.888;2023-10-13T01:35:51;16.70;99.90
37642;DHT22;23486;51.956;5.888;2023-10-13T01:38:18;16.70;99.90
37642;DHT22;23486;51.956;5.888;2023-10-13T01:40:44;16.70;99.90
37642;DHT22;23486;51.956;5.888;2023-10-13T01:43:09;16.70;99.90
37642;DHT22;23486;51.956;5.888;2023-10-13T01:45:37;16.70;99.90
37642;DHT22;23486;51.956;5.888;2023-10-13T01:48:11;16.70;99.90
37642;DHT22;23486;51.956;5.888;2023-10-13T01:50:41;16.70;99.90
37642;DHT22;23486;51.956;5.888;2023-10-13T01:53:07;16.70;99.90
37642;DHT22;23486;51.956;5.888;2023-10-13T01:55:42;16.60;99.90
37642;DHT22;23486;51.956;5.888;2023-10-13T01:58:14;16.70;99.90
37642;DHT22;23486;51.956;5.888;2023-10-13T02:00:44;16.70;99.90
37642;DHT22;23486;51.956;5.888;2023-10-13T02:03:12;16.70;99.90
37642;DHT22;23486;51.956;5.888;2023-10-13T02:05:48;16.60;99.90
37642;DHT22;23486;51.956;5.888;2023-10-13T02:08:18;16.60;99.90
37642;DHT22;23486;51.956;5.888;2023-10-13T02:10:57;16.60;99.90
37642;DHT22;23486;51.956;5.888;2023-10-13T02:13:25;16.60;99.90
37642;DHT22;23486;51.956;5.888;2023-10-13T02:15:55;16.70;99.90
37642;DHT22;23486;51.956;5.888;2023-10-13T02:18:27;16.60;99.90
37642;DHT22;23486;51.956;5.888;2023-10-13T02:20:53;16.60;99.90
37642;DHT22;23486;51.956;5.888;2023-10-13T02:23:29;16.60;99.90
37642;DHT22;23486;51.956;5.888;2023-10-13T02:25:56;16.60;99.90
37642;DHT22;23486;51.956;5.888;2023-10-13T02:28:29;16.60;99.90
37642;DHT22;23486;51.956;5.888;2023-10-13T02:31:01;16.60;99.90
37642;DHT22;23486;51.956;5.888;2023-10-13T02:33:31;16.60;99.90
37642;DHT22;23486;51.956;5.888;2023-10-13T02:35:59;16.60;99.90
37642;DHT22;23486;51.956;5.888;2023-10-13T02:38:26;16.60;99.90
37642;DHT22;23486;51.956;5.888;2023-10-13T02:41:12;16.60;99.90
37642;DHT22;23486;51.956;5.888;2023-10-13T02:43:38;16.60;99.90
37642;DHT22;23486;51.956;5.888;2023-10-13T02:46:04;16.60;99.90
37642;DHT22;23486;51.956;5.888;2023-10-13T02:48:30;16.60;99.90
37642;DHT22;23486;51.956;5.888;2023-10-13T02:51:05;16.60;99.90
37642;DHT22;23486;51.956;5.888;2023-10-13T02:53:41;16.60;99.90
37642;DHT22;23486;51.956;5.888;2023-10-13T02:56:06;16.50;99.90
37642;DHT22;23486;51.956;5.888;2023-10-13T02:58:33;16.50;99.90
37642;DHT22;23486;51.956;5.888;2023-10-13T03:01:19;16.50;99.90
37642;DHT22;23486;51.956;5.888;2023-10-13T03:03:50;16.60;99.90
37642;DHT22;23486;51.956;5.888;2023-10-13T03:06:20;16.50;99.90
37642;DHT22;23486;51.956;5.888;2023-10-13T03:08:48;16.50;99.90
37642;DHT22;23486;51.956;5.888;2023-10-13T03:11:14;16.50;99.90
37642;DHT22;23486;51.956;5.888;2023-10-13T03:13:47;16.50;99.90
37642;DHT22;23486;51.956;5.888;2023-10-13T03:16:16;16.50;99.90
37642;DHT22;23486;51.956;5.888;2023-10-13T03:18:44;16.50;99.90
37642;DHT22;23486;51.956;5.888;2023-10-13T03:21:25;16.50;99.90
37642;DHT22;23486;51.956;5.888;2023-10-13T03:23:56;16.50;99.90
37642;DHT22;23486;51.956;5.888;2023-10-13T03:26:22;16.50;99.90
37642;DHT22;23486;51.956;5.888;2023-10-13T03:28:47;16.40;99.90
37642;DHT22;23486;51.956;5.888;2023-10-13T03:31:19;16.50;99.90
37642;DHT22;23486;51.956;5.888;2023-10-13T03:33:44;16.50;99.90
37642;DHT22;23486;51.956;5.888;2023-10-13T03:36:13;16.40;99.90
37642;DHT22;23486;51.956;5.888;2023-10-13T03:38:58;16.50;99.90
37642;DHT22;23486;51.956;5.888;2023-10-13T03:41:24;16.50;99.90
37642;DHT22;23486;51.956;5.888;2023-10-13T03:43:55;16.50;99.90
37642;DHT22;23486;51.956;5.888;2023-10-13T03:46:38;16.50;99.90
37642;DHT22;23486;51.956;5.888;2023-10-13T03:49:07;16.50;99.90
37642;DHT22;23486;51.956;5.888;2023-10-13T03:51:40;16.50;99.90
37642;DHT22;23486;51.956;5.888;2023-10-13T03:54:06;16.50;99.90
37642;DHT22;23486;51.956;5.888;2023-10-13T03:56:35;16.50;99.90
37642;DHT22;23486;51.956;5.888;2023-10-13T03:59:07;16.50;99.90
37642;DHT22;23486;51.956;5.888;2023-10-13T04:01:33;16.50;99.90
37642;DHT22;23486;51.956;5.888;2023-10-13T04:04:11;16.50;99.90
37642;DHT22;23486;51.956;5.888;2023-10-13T04:06:38;16.50;99.90
37642;DHT22;23486;51.956;5.888;2023-10-13T04:09:20;16.50;99.90
37642;DHT22;23486;51.956;5.888;2023-10-13T04:12:05;16.50;99.90
37642;DHT22;23486;51.956;5.888;2023-10-13T04:14:42;16.60;99.90
37642;DHT22;23486;51.956;5.888;2023-10-13T04:17:23;16.50;99.90
37642;DHT22;23486;51.956;5.888;2023-10-13T04:19:52;16.50;99.90
37642;DHT22;23486;51.956;5.888;2023-10-13T04:22:42;16.50;99.90
37642;DHT22;23486;51.956;5.888;2023-10-13T04:25:21;16.60;99.90
37642;DHT22;23486;51.956;5.888;2023-10-13T04:27:53;16.50;99.90
37642;DHT22;23486;51.956;5.888;2023-10-13T04:30:44;16.50;99.90
37642;DHT22;23486;51.956;5.888;2023-10-13T04:33:25;16.60;99.90
37642;DHT22;23486;51.956;5.888;2023-10-13T04:36:06;16.50;99.90
37642;DHT22;23486;51.956;5.888;2023-10-13T04:38:55;16.50;99.90
37642;DHT22;23486;51.956;5.888;2023-10-13T04:41:39;16.50;99.90
37642;DHT22;23486;51.956;5.888;2023-10-13T04:44:12;16.60;99.90
37642;DHT22;23486;51.956;5.888;2023-10-13T04:46:58;16.60;99.90
37642;DHT22;23486;51.956;5.888;2023-10-13T04:49:28;16.60;99.90
37642;DHT22;23486;51.956;5.888;2023-10-13T04:52:02;16.60;99.90
37642;DHT22;23486;51.956;5.888;2023-10-13T04:54:34;16.60;99.90
37642;DHT22;23486;51.956;5.888;2023-10-13T04:57:21;16.60;99.90
37642;DHT22;23486;51.956;5.888;2023-10-13T05:00:06;16.60;99.90
37642;DHT22;23486;51.956;5.888;2023-10-13T05:02:35;16.60;99.90
37642;DHT22;23486;51.956;5.888;2023-10-13T05:05:02;16.70;99.90
37642;DHT22;23486;51.956;5.888;2023-10-13T05:07:31;16.70;99.90
37642;DHT22;23486;51.956;5.888;2023-10-13T05:10:15;16.70;99.90
37642;DHT22;23486;51.956;5.888;2023-10-13T05:12:59;16.80;99.90
37642;DHT22;23486;51.956;5.888;2023-10-13T05:15:47;16.80;99.90
37642;DHT22;23486;51.956;5.888;2023-10-13T05:18:31;16.80;99.90
37642;DHT22;23486;51.956;5.888;2023-10-13T05:21:16;16.90;99.90
37642;DHT22;23486;51.956;5.888;2023-10-13T05:24:00;16.90;99.90
37642;DHT22;23486;51.956;5.888;2023-10-13T05:26:44;17.00;99.90
37642;DHT22;23486;51.956;5.888;2023-10-13T05:29:29;17.10;99.90
37642;DHT22;23486;51.956;5.888;2023-10-13T05:32:12;17.10;99.90
37642;DHT22;23486;51.956;5.888;2023-10-13T05:34:57;17.10;99.90
37642;DHT22;23486;51.956;5.888;2023-10-13T05:37:41;17.10;99.90
37642;DHT22;23486;51.956;5.888;2023-10-13T05:40:25;17.20;99.90
37642;DHT22;23486;51.956;5.888;2023-10-13T05:43:09;17.20;99.90
37642;DHT22;23486;51.956;5.888;2023-10-13T05:45:54;17.20;99.90
37642;DHT22;23486;51.956;5.888;2023-10-13T05:48:39;17.20;99.90
37642;DHT22;23486;51.956;5.888;2023-10-13T05:51:23;17.20;99.90
37642;DHT22;23486;51.956;5.888;2023-10-13T05:54:02;17.20;99.90
37642;DHT22;23486;51.956;5.888;2023-10-13T05:56:44;17.20;99.90
37642;DHT22;23486;51.956;5.888;2023-10-13T05:59:29;17.20;99.90
37642;DHT22;23486;51.956;5.888;2023-10-13T06:02:15;17.20;99.90
37642;DHT22;23486;51.956;5.888;2023-10-13T06:05:06;17.20;99.90
37642;DHT22;23486;51.956;5.888;2023-10-13T06:07:52;17.20;99.90
37642;DHT22;23486;51.956;5.888;2023-10-13T06:10:36;17.20;99.90
37642;DHT22;23486;51.956;5.888;2023-10-13T06:13:21;17.20;99.90
37642;DHT22;23486;51.956;5.888;2023-10-13T06:16:09;17.20;99.90
37642;DHT22;23486;51.956;5.888;2023-10-13T06:18:54;17.30;99.90
37642;DHT22;23486;51.956;5.888;2023-10-13T06:21:43;17.30;99.90
37642;DHT22;23486;51.956;5.888;2023-10-13T06:24:28;17.30;99.90
37642;DHT22;23486;51.956;5.888;2023-10-13T06:27:12;17.30;99.90
37642;DHT22;23486;51.956;5.888;2023-10-13T06:29:56;17.30;99.90
37642;DHT22;23486;51.956;5.888;2023-10-13T06:32:23;17.30;99.90
37642;DHT22;23486;51.956;5.888;2023-10-13T06:34:57;17.30;99.90
37642;DHT22;23486;51.956;5.888;2023-10-13T06:37:44;17.30;99.90
37642;DHT22;23486;51.956;5.888;2023-10-13T06:40:11;17.30;99.90
37642;DHT22;23486;51.956;5.888;2023-10-13T06:42:51;17.40;99.90
37642;DHT22;23486;51.956;5.888;2023-10-13T06:45:18;17.40;99.90
37642;DHT22;23486;51.956;5.888;2023-10-13T06:47:45;17.40;99.90
37642;DHT22;23486;51.956;5.888;2023-10-13T06:50:14;17.40;99.90
37642;DHT22;23486;51.956;5.888;2023-10-13T06:52:48;17.40;99.90
37642;DHT22;23486;51.956;5.888;2023-10-13T06:55:16;17.50;99.90
37642;DHT22;23486;51.956;5.888;2023-10-13T06:57:43;17.50;99.90
37642;DHT22;23486;51.956;5.888;2023-10-13T07:00:10;17.50;99.90
37642;DHT22;23486;51.956;5.888;2023-10-13T07:02:48;17.50;99.90
37642;DHT22;23486;51.956;5.888;2023-10-13T07:05:17;17.50;99.90
37642;DHT22;23486;51.956;5.888;2023-10-13T07:07:43;17.50;99.90
37642;DHT22;23486;51.956;5.888;2023-10-13T07:10:12;17.50;99.90
37642;DHT22;23486;51.956;5.888;2023-10-13T07:12:39;17.60;99.90
37642;DHT22;23486;51.956;5.888;2023-10-13T07:15:12;17.60;99.90
37642;DHT22;23486;51.956;5.888;2023-10-13T07:17:48;17.50;99.90
37642;DHT22;23486;51.956;5.888;2023-10-13T07:20:20;17.60;99.90
37642;DHT22;23486;51.956;5.888;2023-10-13T07:22:52;17.60;99.90
37642;DHT22;23486;51.956;5.888;2023-10-13T07:25:31;17.50;99.90
37642;DHT22;23486;51.956;5.888;2023-10-13T07:28:03;17.50;99.90
37642;DHT22;23486;51.956;5.888;2023-10-13T07:30:29;17.50;99.90
37642;DHT22;23486;51.956;5.888;2023-10-13T07:33:05;17.50;99.90
37642;DHT22;23486;51.956;5.888;2023-10-13T07:35:31;17.60;99.90
37642;DHT22;23486;51.956;5.888;2023-10-13T07:38:01;17.60;99.90
37642;DHT22;23486;51.956;5.888;2023-10-13T07:40:27;17.60;99.90
37642;DHT22;23486;51.956;5.888;2023-10-13T07:42:54;17.50;99.90
37642;DHT22;23486;51.956;5.888;2023-10-13T07:45:39;17.60;99.90
37642;DHT22;23486;51.956;5.888;2023-10-13T07:48:10;17.50;99.90
37642;DHT22;23486;51.956;5.888;2023-10-13T07:51:18;17.60;99.90
37642;DHT22;23486;51.956;5.888;2023-10-13T07:53:48;17.60;99.90
37642;DHT22;23486;51.956;5.888;2023-10-13T07:56:18;17.60;99.90
37642;DHT22;23486;51.956;5.888;2023-10-13T07:58:45;17.60;99.90
37642;DHT22;23486;51.956;5.888;2023-10-13T08:01:31;17.60;99.90
37642;DHT22;23486;51.956;5.888;2023-10-13T08:03:58;17.60;99.90
37642;DHT22;23486;51.956;5.888;2023-10-13T08:06:42;17.70;99.90
37642;DHT22;23486;51.956;5.888;2023-10-13T08:09:08;17.70;99.90
37642;DHT22;23486;51.956;5.888;2023-10-13T08:11:37;17.60;99.90
37642;DHT22;23486;51.956;5.888;2023-10-13T08:14:04;17.70;99.90
37642;DHT22;23486;51.956;5.888;2023-10-13T08:16:38;17.70;99.90
37642;DHT22;23486;51.956;5.888;2023-10-13T08:19:25;17.70;99.90
37642;DHT22;23486;51.956;5.888;2023-10-13T08:21:59;17.80;99.90
37642;DHT22;23486;51.956;5.888;2023-10-13T08:24:28;17.80;99.90
37642;DHT22;23486;51.956;5.888;2023-10-13T08:26:55;17.90;99.90
37642;DHT22;23486;51.956;5.888;2023-10-13T08:29:44;17.90;99.90
37642;DHT22;23486;51.956;5.888;2023-10-13T08:32:22;18.00;99.90
37642;DHT22;23486;51.956;5.888;2023-10-13T08:34:55;18.00;99.90
37642;DHT22;23486;51.956;5.888;2023-10-13T08:37:21;18.10;99.90
37642;DHT22;23486;51.956;5.888;2023-10-13T08:39:55;18.20;99.90
37642;DHT22;23486;51.956;5.888;2023-10-13T08:42:29;18.20;99.90
37642;DHT22;23486;51.956;5.888;2023-10-13T08:45:10;18.30;99.90
37642;DHT22;23486;51.956;5.888;2023-10-13T08:47:49;18.30;99.90
37642;DHT22;23486;51.956;5.888;2023-10-13T08:50:46;18.40;99.90
37642;DHT22;23486;51.956;5.888;2023-10-13T08:53:25;18.50;99.90
37642;DHT22;23486;51.956;5.888;2023-10-13T08:55:59;18.50;99.90
37642;DHT22;23486;51.956;5.888;2023-10-13T08:58:34;18.60;99.90
37642;DHT22;23486;51.956;5.888;2023-10-13T09:01:29;18.60;99.90
37642;DHT22;23486;51.956;5.888;2023-10-13T09:04:18;18.50;99.90
37642;DHT22;23486;51.956;5.888;2023-10-13T09:06:45;18.60;99.90
37642;DHT22;23486;51.956;5.888;2023-10-13T09:09:18;18.70;99.90
37642;DHT22;23486;51.956;5.888;2023-10-13T09:12:00;18.70;99.90
37642;DHT22;23486;51.956;5.888;2023-10-13T09:14:36;18.70;99.90
37642;DHT22;23486;51.956;5.888;2023-10-13T09:17:07;18.70;99.90
37642;DHT22;23486;51.956;5.888;2023-10-13T09:19:52;18.80;99.90
37642;DHT22;23486;51.956;5.888;2023-10-13T09:22:28;18.80;99.90
37642;DHT22;23486;51.956;5.888;2023-10-13T09:25:03;18.90;99.90
37642;DHT22;23486;51.956;5.888;2023-10-13T09:27:38;18.90;99.90
37642;DHT22;23486;51.956;5.888;2023-10-13T09:30:05;18.90;99.90
37642;DHT22;23486;51.956;5.888;2023-10-13T09:32:47;18.90;99.90
37642;DHT22;23486;51.956;5.888;2023-10-13T09:35:20;18.90;99.90
37642;DHT22;23486;51.956;5.888;2023-10-13T09:37:52;18.80;99.90
37642;DHT22;23486;51.956;5.888;2023-10-13T09:40:22;18.80;99.90
37642;DHT22;23486;51.956;5.888;2023-10-13T09:42:52;18.80;99.90
37642;DHT22;23486;51.956;5.888;2023-10-13T09:45:32;18.80;99.90
37642;DHT22;23486;51.956;5.888;2023-10-13T09:48:03;18.80;99.90
37642;DHT22;23486;51.956;5.888;2023-10-13T09:50:44;18.80;99.90
37642;DHT22;23486;51.956;5.888;2023-10-13T09:53:11;18.80;99.90
37642;DHT22;23486;51.956;5.888;2023-10-13T09:55:45;18.80;99.90
37642;DHT22;23486;51.956;5.888;2023-10-13T09:58:13;18.80;99.90
37642;DHT22;23486;51.956;5.888;2023-10-13T10:00:48;18.90;99.90
37642;DHT22;23486;51.956;5.888;2023-10-13T10:03:23;18.90;99.90
37642;DHT22;23486;51.956;5.888;2023-10-13T10:06:00;18.90;99.90
37642;DHT22;23486;51.956;5.888;2023-10-13T10:08:29;19.00;99.90
37642;DHT22;23486;51.956;5.888;2023-10-13T10:11:07;19.00;99.90
37642;DHT22;23486;51.956;5.888;2023-10-13T10:13:55;19.00;99.90
37642;DHT22;23486;51.956;5.888;2023-10-13T10:16:56;19.00;99.90
37642;DHT22;23486;51.956;5.888;2023-10-13T10:19:25;19.10;99.90
37642;DHT22;23486;51.956;5.888;2023-10-13T10:22:03;19.10;99.90
37642;DHT22;23486;51.956;5.888;2023-10-13T10:24:56;19.10;99.90
37642;DHT22;23486;51.956;5.888;2023-10-13T10:27:32;19.10;99.90
37642;DHT22;23486;51.956;5.888;2023-10-13T10:29:59;19.20;99.90
37642;DHT22;23486;51.956;5.888;2023-10-13T10:32:35;19.20;99.90
37642;DHT22;23486;51.956;5.888;2023-10-13T10:35:07;19.20;99.90
37642;DHT22;23486;51.956;5.888;2023-10-13T10:37:34;19.20;99.90
37642;DHT22;23486;51.956;5.888;2023-10-13T10:40:07;19.20;99.90
37642;DHT22;23486;51.956;5.888;2023-10-13T10:42:33;19.10;99.90
37642;DHT22;23486;51.956;5.888;2023-10-13T10:44:59;19.20;99.90
37642;DHT22;23486;51.956;5.888;2023-10-13T10:47:31;19.20;99.90
37642;DHT22;23486;51.956;5.888;2023-10-13T10:50:04;19.30;99.90
37642;DHT22;23486;51.956;5.888;2023-10-13T10:52:43;19.40;99.90
37642;DHT22;23486;51.956;5.888;2023-10-13T10:55:09;19.50;99.90
37642;DHT22;23486;51.956;5.888;2023-10-13T10:57:38;19.60;99.90
37642;DHT22;23486;51.956;5.888;2023-10-13T11:00:20;19.60;99.90
37642;DHT22;23486;51.956;5.888;2023-10-13T11:02:56;19.60;99.90
37642;DHT22;23486;51.956;5.888;2023-10-13T11:05:22;19.70;99.90
37642;DHT22;23486;51.956;5.888;2023-10-13T11:07:50;19.80;99.90
37642;DHT22;23486;51.956;5.888;2023-10-13T11:10:18;19.80;99.90
37642;DHT22;23486;51.956;5.888;2023-10-13T11:12:58;19.90;99.90
37642;DHT22;23486;51.956;5.888;2023-10-13T11:15:42;20.00;99.90
37642;DHT22;23486;51.956;5.888;2023-10-13T11:18:10;20.10;99.90
37642;DHT22;23486;51.956;5.888;2023-10-13T11:20:42;20.10;99.90
37642;DHT22;23486;51.956;5.888;2023-10-13T11:23:12;20.10;99.90
37642;DHT22;23486;51.956;5.888;2023-10-13T11:25:38;20.10;99.90
37642;DHT22;23486;51.956;5.888;2023-10-13T11:28:33;20.00;99.90
37642;DHT22;23486;51.956;5.888;2023-10-13T11:31:00;20.00;99.90
37642;DHT22;23486;51.956;5.888;2023-10-13T11:33:29;20.00;99.90
37642;DHT22;23486;51.956;5.888;2023-10-13T11:35:57;20.00;99.90
37642;DHT22;23486;51.956;5.888;2023-10-13T11:38:27;20.00;99.90
37642;DHT22;23486;51.956;5.888;2023-10-13T11:40:55;20.00;99.90
37642;DHT22;23486;51.956;5.888;2023-10-13T11:46:13;20.10;99.90
37642;DHT22;23486;51.956;5.888;2023-10-13T11:48:43;20.10;99.90
37642;DHT22;23486;51.956;5.888;2023-10-13T11:51:11;20.10;99.90
37642;DHT22;23486;51.956;5.888;2023-10-13T11:53:44;20.10;99.90
37642;DHT22;23486;51.956;5.888;2023-10-13T11:56:18;20.10;99.90
37642;DHT22;23486;51.956;5.888;2023-10-13T11:58:46;20.20;99.90
37642;DHT22;23486;51.956;5.888;2023-10-13T12:01:12;20.30;99.90
37642;DHT22;23486;51.956;5.888;2023-10-13T12:03:39;20.30;99.90
37642;DHT22;23486;51.956;5.888;2023-10-13T12:06:40;20.30;99.90
37642;DHT22;23486;51.956;5.888;2023-10-13T12:09:10;20.40;99.90
37642;DHT22;23486;51.956;5.888;2023-10-13T12:11:45;20.50;99.90
37642;DHT22;23486;51.956;5.888;2023-10-13T12:14:12;20.60;99.90
37642;DHT22;23486;51.956;5.888;2023-10-13T12:16:47;20.70;99.90
37642;DHT22;23486;51.956;5.888;2023-10-13T12:19:17;20.90;99.90
37642;DHT22;23486;51.956;5.888;2023-10-13T12:21:43;21.10;99.90
37642;DHT22;23486;51.956;5.888;2023-10-13T12:24:10;21.10;99.90
37642;DHT22;23486;51.956;5.888;2023-10-13T12:26:49;21.10;99.90
37642;DHT22;23486;51.956;5.888;2023-10-13T12:29:22;21.20;99.90
37642;DHT22;23486;51.956;5.888;2023-10-13T12:31:48;21.20;99.90
37642;DHT22;23486;51.956;5.888;2023-10-13T12:34:30;21.20;99.90
37642;DHT22;23486;51.956;5.888;2023-10-13T12:37:16;21.20;99.90
37642;DHT22;23486;51.956;5.888;2023-10-13T12:40:00;21.30;99.90
37642;DHT22;23486;51.956;5.888;2023-10-13T12:42:44;21.30;99.90
37642;DHT22;23486;51.956;5.888;2023-10-13T12:45:28;21.30;99.90
37642;DHT22;23486;51.956;5.888;2023-10-13T12:48:12;21.30;99.90
37642;DHT22;23486;51.956;5.888;2023-10-13T12:51:00;21.40;99.90
37642;DHT22;23486;51.956;5.888;2023-10-13T12:53:48;21.30;99.90
37642;DHT22;23486;51.956;5.888;2023-10-13T12:56:15;21.30;99.90
37642;DHT22;23486;51.956;5.888;2023-10-13T12:58:41;21.30;99.90
37642;DHT22;23486;51.956;5.888;2023-10-13T13:01:07;21.30;99.90
37642;DHT22;23486;51.956;5.888;2023-10-13T13:03:33;21.30;99.90
37642;DHT22;23486;51.956;5.888;2023-10-13T13:06:00;21.30;99.90
37642;DHT22;23486;51.956;5.888;2023-10-13T13:08:33;21.30;99.90
37642;DHT22;23486;51.956;5.888;2023-10-13T13:11:01;21.30;99.90
37642;DHT22;23486;51.956;5.888;2023-10-13T13:13:29;21.30;99.90
37642;DHT22;23486;51.956;5.888;2023-10-13T13:15:55;21.30;99.90
37642;DHT22;23486;51.956;5.888;2023-10-13T13:18:21;21.30;99.90
37642;DHT22;23486;51.956;5.888;2023-10-13T13:20:47;21.30;99.90
37642;DHT22;23486;51.956;5.888;2023-10-13T13:23:19;21.30;99.90
37642;DHT22;23486;51.956;5.888;2023-10-13T13:25:45;21.30;99.90
37642;DHT22;23486;51.956;5.888;2023-10-13T13:28:11;21.30;99.90
37642;DHT22;23486;51.956;5.888;2023-10-13T13:30:44;21.30;99.90
37642;DHT22;23486;51.956;5.888;2023-10-13T13:33:10;21.30;99.90
37642;DHT22;23486;51.956;5.888;2023-10-13T13:35:39;21.30;99.90
37642;DHT22;23486;51.956;5.888;2023-10-13T13:38:08;21.30;99.90
37642;DHT22;23486;51.956;5.888;2023-10-13T13:40:58;21.30;99.90
37642;DHT22;23486;51.956;5.888;2023-10-13T13:43:24;21.20;99.90
37642;DHT22;23486;51.956;5.888;2023-10-13T13:46:18;21.20;99.90
37642;DHT22;23486;51.956;5.888;2023-10-13T13:48:44;21.20;99.90
37642;DHT22;23486;51.956;5.888;2023-10-13T13:51:13;21.20;99.90
37642;DHT22;23486;51.956;5.888;2023-10-13T13:53:52;21.20;99.90
37642;DHT22;23486;51.956;5.888;2023-10-13T13:56:18;21.10;99.90
37642;DHT22;23486;51.956;5.888;2023-10-13T13:58:48;21.10;99.90
37642;DHT22;23486;51.956;5.888;2023-10-13T14:01:15;21.10;99.90
37642;DHT22;23486;51.956;5.888;2023-10-13T14:03:45;21.10;99.90
37642;DHT22;23486;51.956;5.888;2023-10-13T14:06:15;21.10;99.90
37642;DHT22;23486;51.956;5.888;2023-10-13T14:08:55;21.10;99.90
37642;DHT22;23486;51.956;5.888;2023-10-13T14:11:22;21.10;99.90
37642;DHT22;23486;51.956;5.888;2023-10-13T14:14:15;21.10;99.90
37642;DHT22;23486;51.956;5.888;2023-10-13T14:16:50;21.10;99.90
37642;DHT22;23486;51.956;5.888;2023-10-13T14:19:16;21.10;99.90
37642;DHT22;23486;51.956;5.888;2023-10-13T14:21:45;21.10;99.90
37642;DHT22;23486;51.956;5.888;2023-10-13T14:24:19;21.10;99.90
37642;DHT22;23486;51.956;5.888;2023-10-13T14:26:56;21.10;99.90
37642;DHT22;23486;51.956;5.888;2023-10-13T14:29:21;21.00;99.90
37642;DHT22;23486;51.956;5.888;2023-10-13T14:31:54;21.00;99.90
37642;DHT22;23486;51.956;5.888;2023-10-13T14:34:20;20.90;99.90
37642;DHT22;23486;51.956;5.888;2023-10-13T14:36:48;20.90;99.90
37642;DHT22;23486;51.956;5.888;2023-10-13T14:39:14;20.80;99.90
37642;DHT22;23486;51.956;5.888;2023-10-13T14:41:40;20.80;99.90
37642;DHT22;23486;51.956;5.888;2023-10-13T14:44:06;20.80;99.90
37642;DHT22;23486;51.956;5.888;2023-10-13T14:46:35;20.80;99.90
37642;DHT22;23486;51.956;5.888;2023-10-13T14:49:01;20.70;99.90
37642;DHT22;23486;51.956;5.888;2023-10-13T14:51:28;20.70;99.90
37642;DHT22;23486;51.956;5.888;2023-10-13T14:53:54;20.70;99.90
37642;DHT22;23486;51.956;5.888;2023-10-13T14:56:22;20.60;99.90
37642;DHT22;23486;51.956;5.888;2023-10-13T14:58:51;20.60;99.90
37642;DHT22;23486;51.956;5.888;2023-10-13T15:01:19;20.60;99.90
37642;DHT22;23486;51.956;5.888;2023-10-13T15:03:50;20.60;99.90
37642;DHT22;23486;51.956;5.888;2023-10-13T15:06:21;20.50;99.90
37642;DHT22;23486;51.956;5.888;2023-10-13T15:08:51;20.50;99.90
37642;DHT22;23486;51.956;5.888;2023-10-13T15:11:16;20.50;99.90
37642;DHT22;23486;51.956;5.888;2023-10-13T15:13:45;20.50;99.90
37642;DHT22;23486;51.956;5.888;2023-10-13T15:16:22;20.50;99.90
37642;DHT22;23486;51.956;5.888;2023-10-13T15:18:49;20.50;99.90
37642;DHT22;23486;51.956;5.888;2023-10-13T15:21:25;20.50;99.90
37642;DHT22;23486;51.956;5.888;2023-10-13T15:23:57;20.40;99.90
37642;DHT22;23486;51.956;5.888;2023-10-13T15:26:32;20.40;99.90
37642;DHT22;23486;51.956;5.888;2023-10-13T15:29:03;20.40;99.90
37642;DHT22;23486;51.956;5.888;2023-10-13T15:31:34;20.30;99.90
37642;DHT22;23486;51.956;5.888;2023-10-13T15:34:01;20.20;99.90
37642;DHT22;23486;51.956;5.888;2023-10-13T15:36:33;20.10;99.90
37642;DHT22;23486;51.956;5.888;2023-10-13T15:38:58;20.00;99.90
37642;DHT22;23486;51.956;5.888;2023-10-13T15:41:25;20.00;99.90
37642;DHT22;23486;51.956;5.888;2023-10-13T15:43:51;19.90;99.90
37642;DHT22;23486;51.956;5.888;2023-10-13T15:46:19;19.80;99.90
37642;DHT22;23486;51.956;5.888;2023-10-13T15:48:51;19.80;99.90
37642;DHT22;23486;51.956;5.888;2023-10-13T15:51:18;19.70;99.90
37642;DHT22;23486;51.956;5.888;2023-10-13T15:53:44;19.60;99.90
37642;DHT22;23486;51.956;5.888;2023-10-13T15:56:13;19.60;99.90
37642;DHT22;23486;51.956;5.888;2023-10-13T15:58:40;19.50;99.90
37642;DHT22;23486;51.956;5.888;2023-10-13T16:01:09;19.40;99.90
37642;DHT22;23486;51.956;5.888;2023-10-13T16:03:35;19.40;99.90
37642;DHT22;23486;51.956;5.888;2023-10-13T16:06:03;19.40;99.90
37642;DHT22;23486;51.956;5.888;2023-10-13T16:08:36;19.40;99.90
37642;DHT22;23486;51.956;5.888;2023-10-13T16:11:10;19.40;99.90
37642;DHT22;23486;51.956;5.888;2023-10-13T16:13:45;19.30;99.90